Карточка аэропорта USTR

Внимание!
Информация на этой странице в стадии наполнения.
Если вы не увидели какой-то информации, или заметили неточность - пожалуйста сообщите нам!
Спасибо!
Команда RU-STAFF
Название аэропортаРощино
Название аэропорта (англ.)Roshschino
Превышение378 ft. (115.2 m.)
Координаты57°10.098', 65°19.002'
Высота перехода700m
Эшелон переходаFL040
Коды ответчика5101-5137
Зона ОрВДТюмень РПИ (USTV)
Данные METARUSTR 091130Z 25006MPS CAVOK M12/M16 Q1029 R30/350044 R21/350050 NOSIG
Проноз погоды (TAF)USTR 090732Z 0909/1009 27005G14MPS 9999 DRSN SCT020 FM091800 25005G14MPS 3100 -SHSN BLSN BKN007 BKN016CB TEMPO 0918/0924 0200 +SHSN BLSN VV002 FM100000 27006MPS 6000 -SHSN DRSN BKN016CB TEMPO 1000/1009 0200 +SHSN BLSN VV002
NOTAMshow/hide NOTAM
AWOS   TABLE

Информация о ВПП

ВПП Длина ВПП (м.) Покрытие Курс ВПП Частота ILS
302704Асфальтобетон301 
213003Асфальтобетон214110.7
122704Асфальтобетон121 
033003Асфальтобетон34108.3

Диспетчерские позиции

Позывной Наименование органа УВД Частота
USTR_GNDТюмень-Руление119.000
USTR_TWRТюмень-Старт118.200
USTR_R_APPТюмень-Круг126.100



Спутниковое изображение